sensor_id;sensor_type;location;lat;lon;timestamp;pressure;altitude;pressure_sealevel;temperature;humidity
24762;BME280;12865;51.934;10.330;2023-12-20T00:00:21;98661.28;;;5.87;100.00
24762;BME280;12865;51.934;10.330;2023-12-20T00:03:07;98668.28;;;5.88;100.00
24762;BME280;12865;51.934;10.330;2023-12-20T00:05:53;98662.38;;;5.96;100.00
24762;BME280;12865;51.934;10.330;2023-12-20T00:08:38;98666.22;;;5.91;100.00
24762;BME280;12865;51.934;10.330;2023-12-20T00:11:24;98665.03;;;5.96;100.00
24762;BME280;12865;51.934;10.330;2023-12-20T00:14:10;98653.47;;;5.85;100.00
24762;BME280;12865;51.934;10.330;2023-12-20T00:16:55;98658.03;;;5.83;100.00
24762;BME280;12865;51.934;10.330;2023-12-20T00:19:41;98650.25;;;5.93;100.00
24762;BME280;12865;51.934;10.330;2023-12-20T00:22:27;98647.72;;;5.91;100.00
24762;BME280;12865;51.934;10.330;2023-12-20T00:25:12;98651.91;;;5.83;100.00
24762;BME280;12865;51.934;10.330;2023-12-20T00:27:58;98649.25;;;5.83;100.00
24762;BME280;12865;51.934;10.330;2023-12-20T00:30:44;98657.72;;;5.88;100.00
24762;BME280;12865;51.934;10.330;2023-12-20T00:33:29;98653.97;;;5.90;100.00
24762;BME280;12865;51.934;10.330;2023-12-20T00:36:15;98651.78;;;5.84;100.00
24762;BME280;12865;51.934;10.330;2023-12-20T00:39:01;98646.59;;;5.83;100.00
24762;BME280;12865;51.934;10.330;2023-12-20T00:41:46;98655.06;;;5.88;100.00
24762;BME280;12865;51.934;10.330;2023-12-20T00:44:32;98648.06;;;5.98;100.00
24762;BME280;12865;51.934;10.330;2023-12-20T00:47:17;98640.63;;;5.92;100.00
24762;BME280;12865;51.934;10.330;2023-12-20T00:50:03;98645.78;;;5.94;100.00
24762;BME280;12865;51.934;10.330;2023-12-20T00:52:49;98643.25;;;5.92;100.00
24762;BME280;12865;51.934;10.330;2023-12-20T00:55:35;98653.25;;;5.88;100.00
24762;BME280;12865;51.934;10.330;2023-12-20T00:58:20;98654.81;;;5.91;100.00
24762;BME280;12865;51.934;10.330;2023-12-20T01:01:06;98658.41;;;5.90;100.00
24762;BME280;12865;51.934;10.330;2023-12-20T01:03:52;98650.97;;;5.95;100.00
24762;BME280;12865;51.934;10.330;2023-12-20T01:06:38;98639.88;;;5.90;100.00
24762;BME280;12865;51.934;10.330;2023-12-20T01:09:24;98648.31;;;5.95;100.00
24762;BME280;12865;51.934;10.330;2023-12-20T01:12:12;98643.72;;;5.97;100.00
24762;BME280;12865;51.934;10.330;2023-12-20T01:14:57;98633.75;;;5.89;100.00
24762;BME280;12865;51.934;10.330;2023-12-20T01:17:44;98632.19;;;5.87;100.00
24762;BME280;12865;51.934;10.330;2023-12-20T01:20:29;98640.72;;;5.90;100.00
24762;BME280;12865;51.934;10.330;2023-12-20T01:23:15;98638.56;;;5.96;100.00
24762;BME280;12865;51.934;10.330;2023-12-20T01:26:00;98648.44;;;5.94;100.00
24762;BME280;12865;51.934;10.330;2023-12-20T01:28:47;98652.38;;;5.99;100.00
24762;BME280;12865;51.934;10.330;2023-12-20T01:31:33;98658.63;;;5.98;100.00
24762;BME280;12865;51.934;10.330;2023-12-20T01:34:19;98651.63;;;6.08;100.00
24762;BME280;12865;51.934;10.330;2023-12-20T01:37:04;98648.66;;;6.02;100.00
24762;BME280;12865;51.934;10.330;2023-12-20T01:39:50;98652.72;;;6.06;100.00
24762;BME280;12865;51.934;10.330;2023-12-20T01:42:36;98654.78;;;6.02;100.00
24762;BME280;12865;51.934;10.330;2023-12-20T01:45:21;98660.66;;;6.06;100.00
24762;BME280;12865;51.934;10.330;2023-12-20T01:48:08;98650.91;;;6.06;100.00
24762;BME280;12865;51.934;10.330;2023-12-20T01:50:55;98656.44;;;6.03;100.00
24762;BME280;12865;51.934;10.330;2023-12-20T01:53:41;98645.06;;;6.03;100.00
24762;BME280;12865;51.934;10.330;2023-12-20T01:56:28;98646.59;;;6.05;100.00
24762;BME280;12865;51.934;10.330;2023-12-20T01:59:14;98651.25;;;6.13;100.00
24762;BME280;12865;51.934;10.330;2023-12-20T02:02:00;98650.84;;;6.17;100.00
24762;BME280;12865;51.934;10.330;2023-12-20T02:04:45;98656.31;;;6.16;100.00
24762;BME280;12865;51.934;10.330;2023-12-20T02:07:32;98666.75;;;6.17;100.00
24762;BME280;12865;51.934;10.330;2023-12-20T02:10:21;98657.34;;;6.24;100.00
24762;BME280;12865;51.934;10.330;2023-12-20T02:13:07;98653.28;;;6.20;100.00
24762;BME280;12865;51.934;10.330;2023-12-20T02:15:54;98661.09;;;6.22;100.00
24762;BME280;12865;51.934;10.330;2023-12-20T02:18:39;98664.06;;;6.28;100.00
24762;BME280;12865;51.934;10.330;2023-12-20T02:21:31;98667.63;;;6.39;100.00
24762;BME280;12865;51.934;10.330;2023-12-20T02:24:18;98667.38;;;6.42;100.00
24762;BME280;12865;51.934;10.330;2023-12-20T02:27:05;98677.34;;;6.49;100.00
24762;BME280;12865;51.934;10.330;2023-12-20T02:29:51;98680.22;;;6.46;100.00
24762;BME280;12865;51.934;10.330;2023-12-20T02:32:37;98702.88;;;6.39;100.00
24762;BME280;12865;51.934;10.330;2023-12-20T02:35:22;98675.75;;;6.26;100.00
24762;BME280;12865;51.934;10.330;2023-12-20T02:38:08;98687.44;;;6.23;100.00
24762;BME280;12865;51.934;10.330;2023-12-20T02:40:54;98682.88;;;6.14;100.00
24762;BME280;12865;51.934;10.330;2023-12-20T02:46:07;98692.38;;;6.17;100.00
24762;BME280;12865;51.934;10.330;2023-12-20T02:48:52;98698.31;;;6.09;100.00
24762;BME280;12865;51.934;10.330;2023-12-20T02:51:38;98683.50;;;6.07;100.00
24762;BME280;12865;51.934;10.330;2023-12-20T02:54:24;98673.75;;;6.07;100.00
24762;BME280;12865;51.934;10.330;2023-12-20T02:57:09;98667.63;;;6.07;100.00
24762;BME280;12865;51.934;10.330;2023-12-20T02:59:55;98668.34;;;6.09;100.00
24762;BME280;12865;51.934;10.330;2023-12-20T03:02:41;98656.72;;;6.00;100.00
24762;BME280;12865;51.934;10.330;2023-12-20T03:05:26;98653.59;;;5.95;100.00
24762;BME280;12865;51.934;10.330;2023-12-20T03:08:12;98652.75;;;5.95;100.00
24762;BME280;12865;51.934;10.330;2023-12-20T03:10:59;98651.44;;;5.89;100.00
24762;BME280;12865;51.934;10.330;2023-12-20T03:13:45;98656.94;;;5.97;100.00
24762;BME280;12865;51.934;10.330;2023-12-20T03:16:30;98661.78;;;5.92;100.00
24762;BME280;12865;51.934;10.330;2023-12-20T03:19:18;98659.84;;;5.83;100.00
24762;BME280;12865;51.934;10.330;2023-12-20T03:22:06;98667.53;;;5.97;100.00
24762;BME280;12865;51.934;10.330;2023-12-20T03:24:52;98663.09;;;5.86;100.00
24762;BME280;12865;51.934;10.330;2023-12-20T03:27:38;98669.22;;;5.87;100.00
24762;BME280;12865;51.934;10.330;2023-12-20T03:30:24;98662.47;;;5.83;100.00
24762;BME280;12865;51.934;10.330;2023-12-20T03:33:09;98660.94;;;5.80;100.00
24762;BME280;12865;51.934;10.330;2023-12-20T03:35:55;98667.06;;;5.81;100.00
24762;BME280;12865;51.934;10.330;2023-12-20T03:38:41;98660.34;;;5.77;100.00
24762;BME280;12865;51.934;10.330;2023-12-20T03:41:26;98656.50;;;5.81;100.00
24762;BME280;12865;51.934;10.330;2023-12-20T03:44:12;98663.81;;;5.77;100.00
24762;BME280;12865;51.934;10.330;2023-12-20T03:46:58;98651.94;;;5.72;100.00
24762;BME280;12865;51.934;10.330;2023-12-20T03:49:43;98656.28;;;5.73;100.00
24762;BME280;12865;51.934;10.330;2023-12-20T03:52:29;98649.03;;;5.75;100.00
24762;BME280;12865;51.934;10.330;2023-12-20T03:55:15;98646.66;;;5.72;100.00
24762;BME280;12865;51.934;10.330;2023-12-20T03:58:01;98639.28;;;5.75;100.00
24762;BME280;12865;51.934;10.330;2023-12-20T04:00:46;98636.31;;;5.69;100.00
24762;BME280;12865;51.934;10.330;2023-12-20T04:03:32;98640.41;;;5.62;100.00
24762;BME280;12865;51.934;10.330;2023-12-20T04:06:18;98638.00;;;5.70;100.00
24762;BME280;12865;51.934;10.330;2023-12-20T04:09:04;98630.44;;;5.65;100.00
24762;BME280;12865;51.934;10.330;2023-12-20T04:11:49;98642.47;;;5.58;100.00
24762;BME280;12865;51.934;10.330;2023-12-20T04:14:35;98627.22;;;5.50;100.00
24762;BME280;12865;51.934;10.330;2023-12-20T04:17:20;98613.28;;;5.48;100.00
24762;BME280;12865;51.934;10.330;2023-12-20T04:20:08;98622.88;;;5.49;100.00
24762;BME280;12865;51.934;10.330;2023-12-20T04:22:54;98622.41;;;5.56;100.00
24762;BME280;12865;51.934;10.330;2023-12-20T04:25:39;98624.94;;;5.46;100.00
24762;BME280;12865;51.934;10.330;2023-12-20T04:28:25;98625.78;;;5.46;100.00
24762;BME280;12865;51.934;10.330;2023-12-20T04:31:11;98618.09;;;5.43;100.00
24762;BME280;12865;51.934;10.330;2023-12-20T04:33:56;98627.34;;;5.38;100.00
24762;BME280;12865;51.934;10.330;2023-12-20T04:36:42;98627.09;;;5.41;100.00
24762;BME280;12865;51.934;10.330;2023-12-20T04:39:28;98636.34;;;5.35;100.00
24762;BME280;12865;51.934;10.330;2023-12-20T04:42:13;98637.31;;;5.34;100.00
24762;BME280;12865;51.934;10.330;2023-12-20T04:44:59;98634.78;;;5.33;100.00
24762;BME280;12865;51.934;10.330;2023-12-20T04:47:45;98628.78;;;5.42;100.00
24762;BME280;12865;51.934;10.330;2023-12-20T04:50:32;98623.72;;;5.50;100.00
24762;BME280;12865;51.934;10.330;2023-12-20T04:53:18;98623.97;;;5.58;100.00
24762;BME280;12865;51.934;10.330;2023-12-20T04:56:04;98616.66;;;5.50;100.00
24762;BME280;12865;51.934;10.330;2023-12-20T04:58:50;98626.59;;;5.47;100.00
24762;BME280;12865;51.934;10.330;2023-12-20T05:01:35;98616.88;;;5.47;100.00
24762;BME280;12865;51.934;10.330;2023-12-20T05:04:21;98601.28;;;5.44;100.00
24762;BME280;12865;51.934;10.330;2023-12-20T05:07:07;98595.72;;;5.47;100.00
24762;BME280;12865;51.934;10.330;2023-12-20T05:09:52;98605.94;;;5.41;100.00
24762;BME280;12865;51.934;10.330;2023-12-20T05:12:39;98615.22;;;5.46;100.00
24762;BME280;12865;51.934;10.330;2023-12-20T05:15:24;98606.22;;;5.38;100.00
24762;BME280;12865;51.934;10.330;2023-12-20T05:18:10;98607.75;;;5.51;100.00
24762;BME280;12865;51.934;10.330;2023-12-20T05:20:56;98601.41;;;5.43;100.00
24762;BME280;12865;51.934;10.330;2023-12-20T05:23:41;98603.69;;;5.36;100.00
24762;BME280;12865;51.934;10.330;2023-12-20T05:26:27;98608.75;;;5.39;100.00
24762;BME280;12865;51.934;10.330;2023-12-20T05:29:13;98596.75;;;5.24;100.00
24762;BME280;12865;51.934;10.330;2023-12-20T05:31:58;98590.84;;;5.32;100.00
24762;BME280;12865;51.934;10.330;2023-12-20T05:34:44;98608.34;;;5.33;100.00
24762;BME280;12865;51.934;10.330;2023-12-20T05:37:30;98610.75;;;5.47;100.00
24762;BME280;12865;51.934;10.330;2023-12-20T05:40:15;98612.31;;;5.49;100.00
24762;BME280;12865;51.934;10.330;2023-12-20T05:43:01;98603.19;;;5.42;100.00
24762;BME280;12865;51.934;10.330;2023-12-20T05:45:47;98612.69;;;5.45;100.00
24762;BME280;12865;51.934;10.330;2023-12-20T05:48:33;98606.69;;;5.43;100.00
24762;BME280;12865;51.934;10.330;2023-12-20T05:51:19;98607.97;;;5.48;100.00
24762;BME280;12865;51.934;10.330;2023-12-20T05:54:04;98601.28;;;5.44;100.00
24762;BME280;12865;51.934;10.330;2023-12-20T05:56:50;98604.72;;;5.56;100.00
24762;BME280;12865;51.934;10.330;2023-12-20T05:59:36;98602.97;;;5.45;100.00
24762;BME280;12865;51.934;10.330;2023-12-20T06:02:21;98599.22;;;5.48;100.00
24762;BME280;12865;51.934;10.330;2023-12-20T06:05:07;98599.22;;;5.48;100.00
24762;BME280;12865;51.934;10.330;2023-12-20T06:07:53;98603.16;;;5.65;100.00
24762;BME280;12865;51.934;10.330;2023-12-20T06:10:40;98611.81;;;5.56;100.00
24762;BME280;12865;51.934;10.330;2023-12-20T06:13:25;98619.63;;;5.57;100.00
24762;BME280;12865;51.934;10.330;2023-12-20T06:16:11;98612.78;;;5.54;100.00
24762;BME280;12865;51.934;10.330;2023-12-20T06:18:57;98616.75;;;5.60;100.00
24762;BME280;12865;51.934;10.330;2023-12-20T06:21:42;98624.47;;;5.52;100.00
24762;BME280;12865;51.934;10.330;2023-12-20T06:24:28;98620.50;;;5.46;100.00
24762;BME280;12865;51.934;10.330;2023-12-20T06:27:14;98618.31;;;5.51;100.00
24762;BME280;12865;51.934;10.330;2023-12-20T06:29:59;98612.09;;;5.52;100.00
24762;BME280;12865;51.934;10.330;2023-12-20T06:32:45;98611.25;;;5.52;100.00
24762;BME280;12865;51.934;10.330;2023-12-20T06:35:32;98604.38;;;5.61;100.00
24762;BME280;12865;51.934;10.330;2023-12-20T06:38:19;98608.94;;;5.59;100.00
24762;BME280;12865;51.934;10.330;2023-12-20T06:41:04;98623.84;;;5.60;100.00
24762;BME280;12865;51.934;10.330;2023-12-20T06:43:51;98619.75;;;5.56;100.00
24762;BME280;12865;51.934;10.330;2023-12-20T06:46:38;98614.56;;;5.54;100.00
24762;BME280;12865;51.934;10.330;2023-12-20T06:49:24;98613.16;;;5.50;100.00
24762;BME280;12865;51.934;10.330;2023-12-20T06:52:09;98608.69;;;5.62;100.00
24762;BME280;12865;51.934;10.330;2023-12-20T06:54:55;98600.78;;;5.50;100.00
24762;BME280;12865;51.934;10.330;2023-12-20T06:57:41;98602.81;;;5.47;100.00
24762;BME280;12865;51.934;10.330;2023-12-20T07:00:27;98591.19;;;5.38;100.00
24762;BME280;12865;51.934;10.330;2023-12-20T07:03:12;98590.72;;;5.44;100.00
24762;BME280;12865;51.934;10.330;2023-12-20T07:05:58;98603.66;;;5.47;100.00
24762;BME280;12865;51.934;10.330;2023-12-20T07:08:44;98608.47;;;5.42;100.00
24762;BME280;12865;51.934;10.330;2023-12-20T07:11:29;98605.94;;;5.41;100.00
24762;BME280;12865;51.934;10.330;2023-12-20T07:14:15;98607.19;;;5.37;100.00
24762;BME280;12865;51.934;10.330;2023-12-20T07:17:00;98612.56;;;5.46;100.00
24762;BME280;12865;51.934;10.330;2023-12-20T07:19:46;98614.84;;;5.40;100.00
24762;BME280;12865;51.934;10.330;2023-12-20T07:22:33;98609.94;;;5.46;100.00
24762;BME280;12865;51.934;10.330;2023-12-20T07:25:19;98617.97;;;5.45;100.00
24762;BME280;12865;51.934;10.330;2023-12-20T07:28:05;98610.16;;;5.43;100.00
24762;BME280;12865;51.934;10.330;2023-12-20T07:30:51;98622.06;;;5.38;100.00
24762;BME280;12865;51.934;10.330;2023-12-20T07:33:37;98622.78;;;5.29;100.00
24762;BME280;12865;51.934;10.330;2023-12-20T07:36:22;98629.16;;;5.26;100.00
24762;BME280;12865;51.934;10.330;2023-12-20T07:39:08;98632.41;;;5.30;100.00
24762;BME280;12865;51.934;10.330;2023-12-20T07:41:54;98646.56;;;5.40;100.00
24762;BME280;12865;51.934;10.330;2023-12-20T07:44:39;98636.59;;;5.43;100.00
24762;BME280;12865;51.934;10.330;2023-12-20T07:47:25;98629.16;;;5.37;100.00
24762;BME280;12865;51.934;10.330;2023-12-20T07:50:11;98631.81;;;5.37;100.00
24762;BME280;12865;51.934;10.330;2023-12-20T07:52:57;98630.59;;;5.41;100.00
24762;BME280;12865;51.934;10.330;2023-12-20T07:55:45;98627.81;;;5.43;100.00
24762;BME280;12865;51.934;10.330;2023-12-20T07:58:30;98622.66;;;5.41;100.00
24762;BME280;12865;51.934;10.330;2023-12-20T08:01:16;98639.97;;;5.45;100.00
24762;BME280;12865;51.934;10.330;2023-12-20T08:04:04;98626.25;;;5.40;100.00
24762;BME280;12865;51.934;10.330;2023-12-20T08:06:50;98620.38;;;5.37;100.00
24762;BME280;12865;51.934;10.330;2023-12-20T08:09:36;98617.63;;;5.38;100.00
24762;BME280;12865;51.934;10.330;2023-12-20T08:12:22;98612.09;;;5.41;100.00
24762;BME280;12865;51.934;10.330;2023-12-20T08:15:08;98614.72;;;5.52;100.00
24762;BME280;12865;51.934;10.330;2023-12-20T08:17:54;98631.31;;;5.43;100.00
24762;BME280;12865;51.934;10.330;2023-12-20T08:20:39;98627.72;;;5.44;100.00
24762;BME280;12865;51.934;10.330;2023-12-20T08:23:25;98619.31;;;5.39;100.00
24762;BME280;12865;51.934;10.330;2023-12-20T08:26:11;98637.28;;;5.57;100.00
24762;BME280;12865;51.934;10.330;2023-12-20T08:28:56;98627.22;;;5.50;100.00
24762;BME280;12865;51.934;10.330;2023-12-20T08:31:42;98628.44;;;5.46;100.00
24762;BME280;12865;51.934;10.330;2023-12-20T08:34:28;98627.94;;;5.52;100.00
24762;BME280;12865;51.934;10.330;2023-12-20T08:37:13;98629.84;;;5.50;100.00
24762;BME280;12865;51.934;10.330;2023-12-20T08:39:59;98619.75;;;5.56;100.00
24762;BME280;12865;51.934;10.330;2023-12-20T08:42:44;98633.94;;;5.54;100.00
24762;BME280;12865;51.934;10.330;2023-12-20T08:45:30;98624.81;;;5.59;100.00
24762;BME280;12865;51.934;10.330;2023-12-20T08:48:16;98632.50;;;5.50;100.00
24762;BME280;12865;51.934;10.330;2023-12-20T08:51:01;98633.22;;;5.52;100.00
24762;BME280;12865;51.934;10.330;2023-12-20T08:53:47;98620.25;;;5.49;100.00
24762;BME280;12865;51.934;10.330;2023-12-20T08:56:33;98613.63;;;5.55;100.00
24762;BME280;12865;51.934;10.330;2023-12-20T08:59:19;98611.31;;;5.62;100.00
24762;BME280;12865;51.934;10.330;2023-12-20T09:02:05;98617.22;;;5.54;100.00
24762;BME280;12865;51.934;10.330;2023-12-20T09:04:50;98615.06;;;5.59;100.00
24762;BME280;12865;51.934;10.330;2023-12-20T09:07:36;98610.75;;;5.58;100.00
24762;BME280;12865;51.934;10.330;2023-12-20T09:10:22;98613.03;;;5.51;100.00
24762;BME280;12865;51.934;10.330;2023-12-20T09:13:07;98607.88;;;5.50;100.00
24762;BME280;12865;51.934;10.330;2023-12-20T09:15:56;98600.78;;;5.50;100.00
24762;BME280;12865;51.934;10.330;2023-12-20T09:18:42;98591.41;;;5.58;100.00
24762;BME280;12865;51.934;10.330;2023-12-20T09:21:28;98596.34;;;5.51;100.00
24762;BME280;12865;51.934;10.330;2023-12-20T09:24:13;98586.00;;;5.48;100.00
24762;BME280;12865;51.934;10.330;2023-12-20T09:26:59;98581.03;;;5.66;100.00
24762;BME280;12865;51.934;10.330;2023-12-20T09:29:45;98588.25;;;5.64;100.00
24762;BME280;12865;51.934;10.330;2023-12-20T09:32:31;98588.97;;;5.66;100.00
24762;BME280;12865;51.934;10.330;2023-12-20T09:35:17;98588.75;;;5.58;100.00
24762;BME280;12865;51.934;10.330;2023-12-20T09:38:06;98587.63;;;5.71;100.00
24762;BME280;12865;51.934;10.330;2023-12-20T09:40:59;98585.88;;;5.61;100.00
24762;BME280;12865;51.934;10.330;2023-12-20T09:43:48;98580.44;;;5.62;100.00
24762;BME280;12865;51.934;10.330;2023-12-20T09:46:34;98582.97;;;5.64;100.00
24762;BME280;12865;51.934;10.330;2023-12-20T09:49:25;98575.88;;;5.64;100.00
24762;BME280;12865;51.934;10.330;2023-12-20T09:52:14;98569.50;;;5.67;100.00
24762;BME280;12865;51.934;10.330;2023-12-20T09:55:01;98573.69;;;5.69;100.00
24762;BME280;12865;51.934;10.330;2023-12-20T09:57:47;98555.56;;;5.65;100.00
24762;BME280;12865;51.934;10.330;2023-12-20T10:00:35;98566.25;;;5.63;100.00
24762;BME280;12865;51.934;10.330;2023-12-20T10:03:25;98550.28;;;5.65;100.00
24762;BME280;12865;51.934;10.330;2023-12-20T10:06:12;98563.03;;;5.60;100.00
24762;BME280;12865;51.934;10.330;2023-12-20T10:08:58;98552.47;;;5.60;100.00
24762;BME280;12865;51.934;10.330;2023-12-20T10:11:44;98542.78;;;5.70;100.00
24762;BME280;12865;51.934;10.330;2023-12-20T10:14:30;98548.19;;;5.68;100.00
24762;BME280;12865;51.934;10.330;2023-12-20T10:17:21;98550.38;;;5.74;100.00
24762;BME280;12865;51.934;10.330;2023-12-20T10:20:07;98543.41;;;5.73;100.00
24762;BME280;12865;51.934;10.330;2023-12-20T10:22:55;98541.59;;;5.74;100.00
24762;BME280;12865;51.934;10.330;2023-12-20T10:25:41;98527.66;;;5.72;100.00
24762;BME280;12865;51.934;10.330;2023-12-20T10:28:33;98523.31;;;5.71;100.00
24762;BME280;12865;51.934;10.330;2023-12-20T10:31:30;98513.69;;;5.81;100.00
24762;BME280;12865;51.934;10.330;2023-12-20T10:34:16;98506.94;;;5.77;100.00
24762;BME280;12865;51.934;10.330;2023-12-20T10:37:02;98489.16;;;5.79;100.00
24762;BME280;12865;51.934;10.330;2023-12-20T10:39:53;98488.06;;;5.81;100.00
24762;BME280;12865;51.934;10.330;2023-12-20T10:42:42;98493.59;;;5.78;100.00
24762;BME280;12865;51.934;10.330;2023-12-20T10:45:28;98485.78;;;5.77;100.00
24762;BME280;12865;51.934;10.330;2023-12-20T10:48:15;98481.34;;;5.88;100.00
24762;BME280;12865;51.934;10.330;2023-12-20T10:51:04;98482.63;;;5.94;100.00
24762;BME280;12865;51.934;10.330;2023-12-20T10:53:54;98481.50;;;5.97;100.00
24762;BME280;12865;51.934;10.330;2023-12-20T10:56:40;98484.66;;;5.90;100.00
24762;BME280;12865;51.934;10.330;2023-12-20T10:59:27;98477.94;;;5.86;100.00
24762;BME280;12865;51.934;10.330;2023-12-20T11:02:14;98484.44;;;5.82;100.00
24762;BME280;12865;51.934;10.330;2023-12-20T11:05:19;98481.78;;;5.94;100.00
24762;BME280;12865;51.934;10.330;2023-12-20T11:08:21;98468.19;;;5.87;100.00
24762;BME280;12865;51.934;10.330;2023-12-20T11:11:35;98460.50;;;5.84;100.00
24762;BME280;12865;51.934;10.330;2023-12-20T11:14:29;98471.44;;;5.90;100.00
24762;BME280;12865;51.934;10.330;2023-12-20T11:17:17;98466.63;;;5.96;100.00
24762;BME280;12865;51.934;10.330;2023-12-20T11:20:05;98451.19;;;6.01;100.00
24762;BME280;12865;51.934;10.330;2023-12-20T11:22:54;98440.41;;;5.93;100.00
24762;BME280;12865;51.934;10.330;2023-12-20T11:25:48;98448.47;;;5.91;100.00
24762;BME280;12865;51.934;10.330;2023-12-20T11:28:34;98445.34;;;5.86;100.00
24762;BME280;12865;51.934;10.330;2023-12-20T11:31:19;98433.56;;;5.90;100.00
24762;BME280;12865;51.934;10.330;2023-12-20T11:34:14;98441.16;;;6.04;100.00
24762;BME280;12865;51.934;10.330;2023-12-20T11:37:02;98421.19;;;5.90;100.00
24762;BME280;12865;51.934;10.330;2023-12-20T11:40:07;98423.75;;;5.81;100.00
24762;BME280;12865;51.934;10.330;2023-12-20T11:42:54;98427.09;;;5.83;100.00
24762;BME280;12865;51.934;10.330;2023-12-20T11:45:49;98418.47;;;5.81;100.00
24762;BME280;12865;51.934;10.330;2023-12-20T11:48:37;98421.31;;;5.89;100.00
24762;BME280;12865;51.934;10.330;2023-12-20T11:51:23;98428.53;;;5.87;100.00
24762;BME280;12865;51.934;10.330;2023-12-20T11:54:09;98413.38;;;5.89;100.00
24762;BME280;12865;51.934;10.330;2023-12-20T11:56:56;98414.81;;;5.82;100.00
24762;BME280;12865;51.934;10.330;2023-12-20T11:59:42;98416.00;;;5.89;100.00
24762;BME280;12865;51.934;10.330;2023-12-20T12:02:28;98422.31;;;5.88;100.00
24762;BME280;12865;51.934;10.330;2023-12-20T12:05:14;98404.97;;;5.84;100.00
24762;BME280;12865;51.934;10.330;2023-12-20T12:07:59;98402.28;;;5.95;100.00
24762;BME280;12865;51.934;10.330;2023-12-20T12:10:45;98391.75;;;5.84;100.00
24762;BME280;12865;51.934;10.330;2023-12-20T12:13:31;98412.47;;;5.79;100.00
24762;BME280;12865;51.934;10.330;2023-12-20T12:16:17;98408.84;;;5.80;100.00
24762;BME280;12865;51.934;10.330;2023-12-20T12:19:06;98420.38;;;5.79;100.00
24762;BME280;12865;51.934;10.330;2023-12-20T12:22:12;98416.50;;;5.83;100.00
24762;BME280;12865;51.934;10.330;2023-12-20T12:25:12;98408.09;;;5.89;100.00
24762;BME280;12865;51.934;10.330;2023-12-20T12:27:59;98424.94;;;5.88;100.00
24762;BME280;12865;51.934;10.330;2023-12-20T12:30:58;98420.81;;;5.95;100.00
24762;BME280;12865;51.934;10.330;2023-12-20T12:33:44;98402.97;;;5.97;100.00
24762;BME280;12865;51.934;10.330;2023-12-20T12:36:30;98398.94;;;5.93;100.00
24762;BME280;12865;51.934;10.330;2023-12-20T12:39:17;98398.53;;;5.98;100.00
24762;BME280;12865;51.934;10.330;2023-12-20T12:42:03;98390.34;;;6.01;100.00
24762;BME280;12865;51.934;10.330;2023-12-20T12:44:49;98385.19;;;5.99;100.00
24762;BME280;12865;51.934;10.330;2023-12-20T12:47:35;98391.09;;;6.12;100.00
24762;BME280;12865;51.934;10.330;2023-12-20T12:50:21;98399.16;;;6.11;100.00
24762;BME280;12865;51.934;10.330;2023-12-20T12:53:07;98391.38;;;6.09;100.00
24762;BME280;12865;51.934;10.330;2023-12-20T12:55:53;98392.22;;;6.19;100.00
24762;BME280;12865;51.934;10.330;2023-12-20T12:58:40;98388.72;;;6.09;100.00
24762;BME280;12865;51.934;10.330;2023-12-20T13:01:25;98386.63;;;6.13;100.00
24762;BME280;12865;51.934;10.330;2023-12-20T13:04:11;98376.31;;;6.10;100.00
24762;BME280;12865;51.934;10.330;2023-12-20T13:06:57;98381.47;;;6.11;100.00
24762;BME280;12865;51.934;10.330;2023-12-20T13:09:42;98363.78;;;6.12;100.00
24762;BME280;12865;51.934;10.330;2023-12-20T13:12:28;98366.88;;;6.17;100.00
24762;BME280;12865;51.934;10.330;2023-12-20T13:15:14;98358.63;;;6.10;100.00
24762;BME280;12865;51.934;10.330;2023-12-20T13:18:00;98361.84;;;6.14;100.00
24762;BME280;12865;51.934;10.330;2023-12-20T13:20:46;98374.97;;;6.15;100.00
24762;BME280;12865;51.934;10.330;2023-12-20T13:23:32;98404.69;;;6.28;100.00
24762;BME280;12865;51.934;10.330;2023-12-20T13:26:18;98430.44;;;5.64;100.00
24762;BME280;12865;51.934;10.330;2023-12-20T13:29:03;98406.75;;;4.78;100.00
24762;BME280;12865;51.934;10.330;2023-12-20T13:31:49;98398.59;;;4.70;100.00
24762;BME280;12865;51.934;10.330;2023-12-20T13:34:35;98409.78;;;4.51;100.00
24762;BME280;12865;51.934;10.330;2023-12-20T13:37:21;98425.16;;;4.46;100.00
24762;BME280;12865;51.934;10.330;2023-12-20T13:40:07;98441.69;;;4.59;100.00
24762;BME280;12865;51.934;10.330;2023-12-20T13:42:53;98435.84;;;4.45;100.00
24762;BME280;12865;51.934;10.330;2023-12-20T13:45:40;98419.78;;;4.25;100.00
24762;BME280;12865;51.934;10.330;2023-12-20T13:48:26;98430.78;;;4.42;100.00
24762;BME280;12865;51.934;10.330;2023-12-20T13:51:11;98425.75;;;4.50;100.00
24762;BME280;12865;51.934;10.330;2023-12-20T13:53:57;98431.88;;;4.39;100.00
24762;BME280;12865;51.934;10.330;2023-12-20T13:56:43;98442.66;;;4.36;100.00
24762;BME280;12865;51.934;10.330;2023-12-20T13:59:29;98442.78;;;4.46;100.00
24762;BME280;12865;51.934;10.330;2023-12-20T14:02:14;98450.09;;;4.42;100.00
24762;BME280;12865;51.934;10.330;2023-12-20T14:05:01;98451.66;;;4.45;100.00
24762;BME280;12865;51.934;10.330;2023-12-20T14:07:47;98449.50;;;4.50;100.00
24762;BME280;12865;51.934;10.330;2023-12-20T14:10:33;98450.69;;;4.57;100.00
24762;BME280;12865;51.934;10.330;2023-12-20T14:13:18;98441.09;;;4.67;100.00
24762;BME280;12865;51.934;10.330;2023-12-20T14:16:04;98445.16;;;4.82;100.00
24762;BME280;12865;51.934;10.330;2023-12-20T14:18:50;98434.69;;;4.92;100.00
24762;BME280;12865;51.934;10.330;2023-12-20T14:21:37;98438.25;;;5.02;100.00
24762;BME280;12865;51.934;10.330;2023-12-20T14:24:23;98416.75;;;5.06;100.00
24762;BME280;12865;51.934;10.330;2023-12-20T14:27:08;98420.69;;;5.12;100.00
24762;BME280;12865;51.934;10.330;2023-12-20T14:29:55;98406.00;;;5.19;100.00
24762;BME280;12865;51.934;10.330;2023-12-20T14:32:41;98412.00;;;5.21;100.00